Terminal Aerodrome Forecast
Issued by NWS Corpus Christi, TX

Current Version | Previous Version | Text Only | Print | Product List | Glossary Off
Versions: 1 2 3 4 5 6 7 8 9 10 11 12 13 14 15 16 17 18 19 20

917
FTUS44 KCRP 011740
TAFCRP
TAF
KCRP 011740Z 0118/0218 12008KT P6SM SCT030 BKN050
     FM020200 11010KT 5SM HZ BKN015
     FM020600 07008KT 5SM BR VCSH OVC011
      TEMPO 0206/0210 4SM TSRA OVC008CB
     FM021000 02011KT 5SM -SHRA OVC007
     FM021300 01015KT P6SM OVC015=

USA.gov is the U.S. government's official web portal to all federal, state and local government web resources and services.